createdAt,value
2022-11-25T00:00:33.033Z,2.45
2022-11-25T00:03:35.039Z,2.61
2022-11-25T00:06:36.733Z,2.49
2022-11-25T00:09:38.372Z,2.21
2022-11-25T00:12:41.631Z,2.34
2022-11-25T00:15:44.333Z,2.21
2022-11-25T00:18:46.633Z,2.27
2022-11-25T00:21:48.255Z,2.44
2022-11-25T00:24:50.061Z,2.50
2022-11-25T00:27:53.673Z,2.42
2022-11-25T00:30:55.341Z,2.53
2022-11-25T00:33:57.095Z,2.67
2022-11-25T00:36:58.751Z,2.67
2022-11-25T00:40:00.402Z,2.70
2022-11-25T00:43:03.521Z,2.71
2022-11-25T00:46:05.408Z,2.65
2022-11-25T00:49:07.189Z,2.76
2022-11-25T00:52:09.350Z,2.72
2022-11-25T00:55:11.171Z,2.58
2022-11-25T00:58:14.203Z,2.47
2022-11-25T01:01:16.409Z,2.56
2022-11-25T01:04:18.137Z,2.52
2022-11-25T01:07:19.834Z,2.27
2022-11-25T01:10:21.561Z,1.79
2022-11-25T01:13:24.584Z,1.69
2022-11-25T01:16:26.448Z,1.89
2022-11-25T01:19:28.263Z,1.98
2022-11-25T01:22:29.969Z,1.83
2022-11-25T01:25:31.602Z,1.82
2022-11-25T01:28:34.732Z,1.86
2022-11-25T01:31:37.184Z,1.95
2022-11-25T01:34:39.067Z,2.09
2022-11-25T01:37:40.739Z,2.12
2022-11-25T01:40:42.413Z,2.14
2022-11-25T01:43:58.882Z,1.92
2022-11-25T01:47:05.449Z,2.09
2022-11-25T01:50:10.612Z,2.13
2022-11-25T01:53:14.015Z,2.12
2022-11-25T01:56:16.229Z,2.10
2022-11-25T01:59:18.301Z,2.16
2022-11-25T02:02:21.763Z,2.08
2022-11-25T02:05:30.927Z,2.04
2022-11-25T02:08:35.350Z,2.12
2022-11-25T02:11:40.050Z,2.07
2022-11-25T02:14:42.774Z,2.02
2022-11-25T02:17:47.141Z,1.95
2022-11-25T02:20:49.036Z,1.82
2022-11-25T02:23:52.745Z,1.81
2022-11-25T02:26:55.876Z,1.78
2022-11-25T02:29:57.609Z,1.80
2022-11-25T02:33:00.393Z,1.95
2022-11-25T02:36:03.052Z,1.91
2022-11-25T02:39:04.946Z,1.82
2022-11-25T02:42:08.224Z,1.82
2022-11-25T02:45:12.083Z,1.76
2022-11-25T02:48:13.945Z,1.76
2022-11-25T02:51:18.235Z,1.72
2022-11-25T02:54:19.971Z,1.78
2022-11-25T02:57:23.007Z,1.79
2022-11-25T03:00:24.769Z,1.74
2022-11-25T03:03:26.435Z,1.74
2022-11-25T03:06:28.241Z,1.76
2022-11-25T03:09:30.061Z,1.69
2022-11-25T03:12:33.107Z,1.70
2022-11-25T03:15:35.300Z,1.71
2022-11-25T03:18:36.954Z,1.74
2022-11-25T03:21:38.724Z,1.65
2022-11-25T03:24:40.417Z,1.52
2022-11-25T03:27:43.845Z,1.40
2022-11-25T03:30:45.639Z,1.35
2022-11-25T03:33:47.337Z,1.26
2022-11-25T03:36:49.081Z,1.24
2022-11-25T03:39:50.864Z,0.56
2022-11-25T03:42:53.935Z,0.38
2022-11-25T03:45:55.705Z,0.29
2022-11-25T03:48:57.602Z,0.13
2022-11-25T03:51:59.293Z,0.15
2022-11-25T03:55:01.053Z,0.23
2022-11-25T03:58:04.127Z,0.50
2022-11-25T04:01:05.806Z,0.76
2022-11-25T04:04:07.549Z,0.82
2022-11-25T04:07:09.256Z,0.67
2022-11-25T04:10:11.336Z,0.77
2022-11-25T04:13:14.580Z,0.78
2022-11-25T04:16:22.470Z,0.44
2022-11-25T04:19:24.358Z,0.12
2022-11-25T04:22:26.051Z,-0.13
2022-11-25T04:25:27.915Z,-0.13
2022-11-25T04:28:30.983Z,0.04
2022-11-25T04:31:32.891Z,0.12
2022-11-25T04:34:34.864Z,0.27
2022-11-25T04:37:36.712Z,0.08
2022-11-25T04:40:39.456Z,0.20
2022-11-25T04:43:42.517Z,0.17
2022-11-25T04:46:44.334Z,0.24
2022-11-25T04:49:46.026Z,0.07
2022-11-25T04:52:47.799Z,0.00
2022-11-25T04:55:49.452Z,0.06
2022-11-25T04:58:52.764Z,0.06
2022-11-25T05:01:54.436Z,0.28
2022-11-25T05:04:56.861Z,0.48
2022-11-25T05:07:58.486Z,0.42
2022-11-25T05:11:00.946Z,0.54
2022-11-25T05:14:04.023Z,0.66
2022-11-25T05:17:06.096Z,0.67
2022-11-25T05:20:08.434Z,0.43
2022-11-25T05:23:10.308Z,0.02
2022-11-25T05:26:12.034Z,-0.26
2022-11-25T05:29:15.057Z,-0.37
2022-11-25T05:32:16.748Z,-0.39
2022-11-25T05:35:18.503Z,-0.28
2022-11-25T05:38:20.178Z,-0.30
2022-11-25T05:41:21.870Z,-0.21
2022-11-25T05:44:25.063Z,-0.13
2022-11-25T05:47:26.801Z,-0.23
2022-11-25T05:50:28.488Z,-0.19
2022-11-25T05:53:30.382Z,-0.17
2022-11-25T05:56:32.136Z,-0.01
2022-11-25T05:59:35.233Z,0.06
2022-11-25T06:02:36.970Z,0.12
2022-11-25T06:05:38.749Z,0.28
2022-11-25T06:08:40.503Z,0.46
2022-11-25T06:11:42.270Z,0.44
2022-11-25T06:14:45.359Z,0.38
2022-11-25T06:17:47.039Z,0.27
2022-11-25T06:20:55.941Z,0.15
2022-11-25T06:23:57.590Z,0.15
2022-11-25T06:26:59.283Z,0.24
2022-11-25T06:30:02.304Z,0.28
2022-11-25T06:33:03.952Z,0.37
2022-11-25T06:36:06.657Z,0.44
2022-11-25T06:39:08.563Z,0.49
2022-11-25T06:42:11.118Z,0.50
2022-11-25T06:45:14.559Z,0.54
2022-11-25T06:48:16.222Z,0.49
2022-11-25T06:51:17.955Z,0.44
2022-11-25T06:54:19.653Z,0.55
2022-11-25T06:57:21.291Z,0.55
2022-11-25T07:00:24.525Z,0.52
2022-11-25T07:03:26.209Z,0.40
2022-11-25T07:06:28.077Z,0.35
2022-11-25T07:09:29.793Z,0.54
2022-11-25T07:12:31.470Z,0.54
2022-11-25T07:15:35.491Z,0.61
2022-11-25T07:18:37.822Z,0.64
2022-11-25T07:21:39.773Z,0.61
2022-11-25T07:24:41.453Z,0.65
2022-11-25T07:27:43.127Z,0.57
2022-11-25T07:34:10.216Z,0.44
2022-11-25T07:37:11.883Z,0.39
2022-11-25T07:40:13.704Z,0.16
2022-11-25T07:43:15.351Z,0.40
2022-11-25T07:46:24.982Z,0.44
2022-11-25T07:49:28.342Z,0.54
2022-11-25T07:52:29.958Z,0.61
2022-11-25T07:55:31.824Z,0.54
2022-11-25T07:58:33.460Z,0.63
2022-11-25T08:01:36.581Z,0.73
2022-11-25T08:04:38.230Z,0.79
2022-11-25T08:07:39.994Z,0.86
2022-11-25T08:10:41.643Z,0.70
2022-11-25T08:13:43.820Z,0.77
2022-11-25T08:16:46.868Z,0.93
2022-11-25T08:19:48.578Z,0.99
2022-11-25T08:22:50.333Z,1.14
2022-11-25T08:25:52.036Z,1.27
2022-11-25T08:28:54.100Z,1.37
2022-11-25T08:31:57.164Z,1.50
2022-11-25T08:34:58.994Z,1.56
2022-11-25T08:38:00.689Z,1.61
2022-11-25T08:41:02.796Z,1.70
2022-11-25T08:44:05.429Z,1.77
2022-11-25T08:47:08.573Z,1.85
2022-11-25T08:50:10.841Z,1.94
2022-11-25T08:53:12.523Z,2.02
2022-11-25T08:56:14.581Z,2.19
2022-11-25T08:59:16.423Z,2.36
2022-11-25T09:02:19.593Z,2.49
2022-11-25T09:05:21.482Z,2.49
2022-11-25T09:08:23.372Z,2.48
2022-11-25T09:11:25.451Z,2.58
2022-11-25T09:14:28.081Z,2.81
2022-11-25T09:17:31.199Z,2.88
2022-11-25T09:20:33.312Z,3.00
2022-11-25T09:23:35.120Z,2.93
2022-11-25T09:26:36.800Z,2.90
2022-11-25T09:29:38.929Z,3.05
2022-11-25T09:32:42.479Z,3.07
2022-11-25T09:35:44.506Z,3.13
2022-11-25T09:38:46.756Z,3.09
2022-11-25T09:41:54.387Z,3.15
2022-11-25T09:45:03.753Z,3.16
2022-11-25T09:48:20.254Z,3.20
2022-11-25T09:51:24.130Z,3.25
2022-11-25T09:54:29.828Z,3.27
2022-11-25T09:57:40.948Z,3.28
2022-11-25T10:00:44.637Z,3.33
2022-11-25T10:03:49.344Z,3.38
2022-11-25T10:06:55.666Z,3.40
2022-11-25T10:09:59.519Z,3.44
2022-11-25T10:13:02.977Z,3.49
2022-11-25T10:16:06.981Z,3.53
2022-11-25T10:19:13.621Z,3.58
2022-11-25T10:22:21.601Z,3.65
2022-11-25T10:25:24.106Z,3.70
2022-11-25T10:28:30.036Z,3.73
2022-11-25T10:31:35.062Z,3.78
2022-11-25T10:34:39.503Z,3.78
2022-11-25T10:37:44.957Z,3.80
2022-11-25T10:40:48.176Z,3.84
2022-11-25T10:43:50.232Z,3.90
2022-11-25T10:47:15.582Z,3.94
2022-11-25T10:50:20.115Z,3.96
2022-11-25T10:53:25.187Z,4.05
2022-11-25T10:56:26.874Z,4.11
2022-11-25T10:59:29.604Z,4.15
2022-11-25T11:02:37.506Z,4.23
2022-11-25T11:05:46.689Z,4.25
2022-11-25T11:08:50.008Z,4.33
2022-11-25T11:11:51.685Z,4.37
2022-11-25T11:14:53.987Z,4.43
2022-11-25T11:17:56.407Z,4.43
2022-11-25T11:20:59.368Z,4.41
2022-11-25T11:24:02.983Z,4.38
2022-11-25T11:27:06.794Z,4.41
2022-11-25T11:30:09.973Z,4.44
2022-11-25T11:33:29.929Z,4.49
2022-11-25T11:36:40.113Z,4.53
2022-11-25T11:39:50.544Z,4.54
2022-11-25T11:43:07.054Z,4.55
2022-11-25T11:46:18.493Z,4.56
2022-11-25T11:49:30.750Z,4.68
2022-11-25T11:52:39.837Z,4.81
2022-11-25T11:56:11.868Z,4.79
2022-11-25T11:59:20.638Z,4.79
2022-11-25T12:02:35.421Z,4.82
2022-11-25T12:05:37.142Z,4.78
2022-11-25T12:08:45.629Z,4.78
2022-11-25T12:11:52.306Z,4.95
2022-11-25T12:15:00.809Z,4.95
2022-11-25T12:18:05.032Z,5.02
2022-11-25T12:21:08.671Z,5.10
2022-11-25T12:24:14.324Z,5.19
2022-11-25T12:27:20.897Z,5.25
2022-11-25T12:30:23.178Z,5.32
2022-11-25T12:33:28.063Z,5.36
2022-11-25T12:36:32.899Z,5.41
2022-11-25T12:39:39.608Z,5.47
2022-11-25T12:42:43.868Z,5.45
2022-11-25T12:45:46.835Z,5.44
2022-11-25T12:48:48.767Z,5.48
2022-11-25T12:52:08.399Z,5.51
2022-11-25T12:55:12.290Z,5.50
2022-11-25T12:58:36.569Z,5.53
2022-11-25T13:01:56.060Z,5.62
2022-11-25T13:05:33.235Z,5.60
2022-11-25T13:08:50.542Z,5.56
2022-11-25T13:12:03.710Z,5.54
2022-11-25T13:15:36.803Z,5.55
2022-11-25T13:18:41.285Z,5.55
2022-11-25T13:21:55.822Z,5.57
2022-11-25T13:24:58.076Z,5.54
2022-11-25T13:28:00.710Z,5.58
2022-11-25T13:31:20.515Z,5.52
2022-11-25T13:34:26.801Z,5.46
2022-11-25T13:37:36.633Z,5.48
2022-11-25T13:40:38.943Z,5.56
2022-11-25T13:43:51.651Z,5.64
2022-11-25T13:46:55.243Z,5.63
2022-11-25T13:49:58.682Z,5.62
2022-11-25T13:53:01.664Z,5.68
2022-11-25T13:56:12.681Z,5.64
2022-11-25T13:59:34.008Z,5.65
2022-11-25T14:02:38.457Z,5.71
2022-11-25T14:05:52.219Z,5.81
2022-11-25T14:08:55.605Z,5.75
2022-11-25T14:12:21.031Z,5.73
2022-11-25T14:15:40.309Z,5.74
2022-11-25T14:22:28.749Z,5.74
2022-11-25T14:25:33.881Z,5.81
2022-11-25T14:28:40.061Z,5.82
2022-11-25T14:31:45.069Z,5.93
2022-11-25T14:34:50.051Z,6.03
2022-11-25T14:37:53.014Z,6.10
2022-11-25T14:40:58.708Z,6.10
2022-11-25T14:44:04.796Z,5.99
2022-11-25T14:47:06.444Z,6.03
2022-11-25T14:50:33.744Z,5.96
2022-11-25T14:53:43.014Z,5.99
2022-11-25T14:56:48.469Z,5.91
2022-11-25T14:59:50.656Z,5.81
2022-11-25T15:02:53.644Z,5.75
2022-11-25T15:06:01.471Z,5.68
2022-11-25T15:09:03.872Z,5.68
2022-11-25T15:12:08.119Z,5.60
2022-11-25T15:15:14.711Z,5.57
2022-11-25T15:18:18.782Z,5.49
2022-11-25T15:21:23.037Z,5.45
2022-11-25T15:24:25.961Z,5.42
2022-11-25T15:27:28.548Z,5.40
2022-11-25T15:30:30.301Z,5.36
2022-11-25T15:33:32.012Z,5.37
2022-11-25T15:36:35.077Z,5.31
2022-11-25T15:39:36.959Z,5.28
2022-11-25T15:42:42.267Z,5.24
2022-11-25T15:45:45.285Z,5.04
2022-11-25T15:48:48.390Z,5.06
2022-11-25T15:51:53.864Z,4.94
2022-11-25T15:54:58.050Z,4.78
2022-11-25T15:58:03.523Z,4.71
2022-11-25T16:01:05.977Z,4.56
2022-11-25T16:04:12.357Z,4.59
2022-11-25T16:07:22.868Z,4.65
2022-11-25T16:10:25.854Z,4.51
2022-11-25T16:13:31.408Z,4.68
2022-11-25T16:16:33.212Z,4.62
2022-11-25T16:19:38.877Z,4.43
2022-11-25T16:22:41.921Z,4.23
2022-11-25T16:25:48.251Z,4.09
2022-11-25T16:28:51.404Z,3.99
2022-11-25T16:31:53.333Z,3.74
2022-11-25T16:34:55.722Z,3.58
2022-11-25T16:37:58.900Z,3.60
2022-11-25T16:41:08.274Z,3.43
2022-11-25T16:44:16.362Z,3.45
2022-11-25T16:47:19.359Z,3.67
2022-11-25T16:50:21.253Z,3.82
2022-11-25T16:53:24.352Z,3.93
2022-11-25T16:56:27.969Z,3.87
2022-11-25T16:59:30.922Z,3.99
2022-11-25T17:02:33.067Z,4.00
2022-11-25T17:05:34.739Z,4.09
2022-11-25T17:08:38.173Z,4.09
2022-11-25T17:11:46.311Z,4.14
2022-11-25T17:14:49.122Z,4.14
2022-11-25T17:17:51.085Z,4.17
2022-11-25T17:20:53.638Z,4.17
2022-11-25T17:24:00.025Z,4.18
2022-11-25T17:27:07.252Z,4.19
2022-11-25T17:30:16.167Z,4.17
2022-11-25T17:33:19.118Z,4.18
2022-11-25T17:36:21.517Z,4.20
2022-11-25T17:39:24.627Z,4.21
2022-11-25T17:42:28.114Z,4.28
2022-11-25T17:45:30.024Z,4.19
2022-11-25T17:48:32.219Z,4.39
2022-11-25T17:51:35.610Z,4.37
2022-11-25T17:54:40.050Z,4.37
2022-11-25T17:57:42.889Z,4.33
2022-11-25T18:00:45.353Z,4.33
2022-11-25T18:03:47.639Z,4.36
2022-11-25T18:06:50.533Z,4.43
2022-11-25T18:09:56.354Z,4.78
2022-11-25T18:12:58.538Z,5.18
2022-11-25T18:16:00.876Z,5.41
2022-11-25T18:19:03.309Z,5.59
2022-11-25T18:22:09.272Z,5.66
2022-11-25T18:25:16.001Z,5.77
2022-11-25T18:28:19.931Z,5.77
2022-11-25T18:31:22.747Z,5.72
2022-11-25T18:34:25.496Z,5.77
2022-11-25T18:37:27.658Z,5.72
2022-11-25T18:40:31.138Z,5.72
2022-11-25T18:43:34.783Z,5.55
2022-11-25T18:46:38.238Z,5.46
2022-11-25T18:49:41.317Z,5.50
2022-11-25T18:52:43.638Z,5.54
2022-11-25T18:55:48.558Z,5.54
2022-11-25T18:58:51.210Z,5.61
2022-11-25T19:01:53.654Z,5.65
2022-11-25T19:04:56.323Z,5.56
2022-11-25T19:07:58.861Z,5.63
2022-11-25T19:11:02.346Z,5.53
2022-11-25T19:14:07.297Z,5.46
2022-11-25T19:17:18.218Z,5.50
2022-11-25T19:20:23.196Z,5.54
2022-11-25T19:23:25.756Z,5.49
2022-11-25T19:26:31.153Z,5.44
2022-11-25T19:29:41.820Z,5.46
2022-11-25T19:32:45.913Z,5.45
2022-11-25T19:35:48.401Z,5.40
2022-11-25T19:38:52.561Z,5.40
2022-11-25T19:41:56.529Z,5.39
2022-11-25T19:44:59.239Z,5.36
2022-11-25T19:48:03.502Z,5.38
2022-11-25T19:51:05.838Z,5.33
2022-11-25T19:54:10.791Z,5.24
2022-11-25T19:57:16.444Z,5.21
2022-11-25T20:00:20.921Z,5.20
2022-11-25T20:03:24.893Z,5.30
2022-11-25T20:06:30.326Z,5.20
2022-11-25T20:09:32.417Z,5.19
2022-11-25T20:12:36.386Z,5.18
2022-11-25T20:15:42.797Z,5.25
2022-11-25T20:18:45.954Z,5.32
2022-11-25T20:21:48.785Z,5.17
2022-11-25T20:24:51.575Z,5.20
2022-11-25T20:27:55.945Z,5.12
2022-11-25T20:30:58.873Z,5.26
2022-11-25T20:34:01.260Z,5.23
2022-11-25T20:37:04.029Z,5.25
2022-11-25T20:40:13.507Z,5.13
2022-11-25T20:43:25.402Z,5.08
2022-11-25T20:46:28.642Z,5.12
2022-11-25T20:49:31.131Z,5.07
2022-11-25T20:52:34.718Z,5.14
2022-11-25T20:55:36.765Z,5.18
2022-11-25T20:58:40.472Z,5.17
2022-11-25T21:01:42.739Z,5.14
2022-11-25T21:04:45.101Z,5.16
2022-11-25T21:07:49.941Z,5.11
2022-11-25T21:10:53.653Z,5.19
2022-11-25T21:13:56.864Z,5.08
2022-11-25T21:16:59.082Z,5.16
2022-11-25T21:20:01.181Z,5.02
2022-11-25T21:23:03.373Z,5.06
2022-11-25T21:26:06.369Z,5.10
2022-11-25T21:29:14.180Z,5.12
2022-11-25T21:32:19.468Z,5.09
2022-11-25T21:35:22.040Z,5.17
2022-11-25T21:38:25.092Z,5.13
2022-11-25T21:41:26.860Z,5.07
2022-11-25T21:44:32.029Z,4.99
2022-11-25T21:47:33.724Z,5.03
2022-11-25T21:50:35.445Z,5.08
2022-11-25T21:53:37.576Z,5.04
2022-11-25T21:56:39.468Z,5.08
2022-11-25T21:59:43.028Z,4.94
2022-11-25T22:02:44.757Z,4.94
2022-11-25T22:05:46.935Z,5.07
2022-11-25T22:08:48.867Z,5.10
2022-11-25T22:11:50.790Z,5.06
2022-11-25T22:14:53.894Z,5.02
2022-11-25T22:17:56.967Z,5.04
2022-11-25T22:20:58.725Z,5.15
2022-11-25T22:24:00.382Z,5.06
2022-11-25T22:27:02.075Z,5.18
2022-11-25T22:30:13.699Z,5.12
2022-11-25T22:33:15.406Z,5.15
2022-11-25T22:36:24.678Z,5.05
2022-11-25T22:39:26.694Z,5.07
2022-11-25T22:42:29.756Z,5.18
2022-11-25T22:45:33.820Z,5.13
2022-11-25T22:48:36.320Z,5.03
2022-11-25T22:51:38.030Z,5.04
2022-11-25T22:54:39.948Z,5.15
2022-11-25T22:57:41.777Z,5.12
2022-11-25T23:00:45.899Z,4.98
2022-11-25T23:03:47.567Z,5.10
2022-11-25T23:06:49.276Z,5.20
2022-11-25T23:09:51.307Z,5.07
2022-11-25T23:12:52.967Z,5.08
2022-11-25T23:15:57.337Z,5.09
2022-11-25T23:18:59.312Z,5.17
2022-11-25T23:22:00.993Z,5.11
2022-11-25T23:25:02.667Z,5.14
2022-11-25T23:28:04.518Z,5.09
2022-11-25T23:31:11.788Z,5.18
2022-11-25T23:34:13.457Z,5.06
2022-11-25T23:37:15.429Z,5.03
2022-11-25T23:40:18.387Z,5.13
2022-11-25T23:43:20.433Z,5.12
2022-11-25T23:46:24.971Z,5.11
2022-11-25T23:49:28.619Z,5.16
2022-11-25T23:52:30.237Z,5.12
2022-11-25T23:55:34.201Z,5.10
2022-11-25T23:58:35.875Z,5.04
